createdAt,value
2018-10-02T00:00:40.663Z,9.56
2018-10-02T00:03:10.410Z,9.69
2018-10-02T00:05:40.268Z,9.50
2018-10-02T00:08:09.676Z,9.49
2018-10-02T00:10:39.584Z,9.39
2018-10-02T00:13:14.218Z,9.36
2018-10-02T00:15:43.393Z,9.41
2018-10-02T00:18:13.175Z,9.25
2018-10-02T00:20:43.304Z,9.18
2018-10-02T00:23:13.342Z,9.20
2018-10-02T00:25:43.174Z,9.27
2018-10-02T00:28:12.667Z,9.05
2018-10-02T00:30:42.231Z,9.06
2018-10-02T00:33:11.788Z,8.98
2018-10-02T00:35:41.265Z,9.00
2018-10-02T00:38:11.193Z,8.99
2018-10-02T00:40:41.054Z,8.91
2018-10-02T00:43:10.801Z,8.98
2018-10-02T00:45:40.291Z,8.96
2018-10-02T00:48:08.711Z,8.76
2018-10-02T00:50:38.316Z,8.77
2018-10-02T00:53:08.081Z,8.89
2018-10-02T00:55:37.791Z,8.82
2018-10-02T00:58:07.284Z,8.70
2018-10-02T01:00:35.635Z,8.63
2018-10-02T01:03:05.249Z,8.73
2018-10-02T01:05:35.034Z,8.71
2018-10-02T01:08:04.781Z,8.70
2018-10-02T01:10:34.276Z,8.79
2018-10-02T01:13:02.490Z,8.78
2018-10-02T01:15:32.188Z,8.74
2018-10-02T01:18:01.665Z,8.78
2018-10-02T01:20:31.285Z,8.98
2018-10-02T01:22:59.425Z,9.17
2018-10-02T01:25:29.266Z,9.18
2018-10-02T01:27:57.602Z,8.98
2018-10-02T01:30:27.253Z,8.91
2018-10-02T01:32:57.315Z,8.96
2018-10-02T01:35:26.974Z,8.95
2018-10-02T01:37:56.405Z,8.83
2018-10-02T01:40:26.181Z,8.73
2018-10-02T01:42:55.792Z,8.71
2018-10-02T01:45:25.401Z,8.51
2018-10-02T01:47:55.167Z,8.62
2018-10-02T01:50:24.956Z,8.72
2018-10-02T01:52:54.326Z,8.68
2018-10-02T01:55:24.185Z,8.62
2018-10-02T01:59:09.995Z,8.77
2018-10-02T02:01:39.380Z,8.72
2018-10-02T02:04:09.189Z,8.60
2018-10-02T02:06:38.940Z,8.48
2018-10-02T02:09:08.531Z,8.50
2018-10-02T02:11:38.234Z,8.55
2018-10-02T02:14:08.185Z,8.72
2018-10-02T02:16:37.992Z,8.58
2018-10-02T02:21:17.958Z,8.63
2018-10-02T02:23:47.367Z,8.53
2018-10-02T02:26:17.055Z,8.57
2018-10-02T02:28:46.428Z,8.68
2018-10-02T02:31:16.169Z,8.74
2018-10-02T02:33:45.785Z,8.76
2018-10-02T02:36:15.493Z,8.72
2018-10-02T02:39:20.780Z,8.61
2018-10-02T02:41:50.309Z,8.66
2018-10-02T02:44:19.389Z,8.60
2018-10-02T02:46:49.166Z,8.62
2018-10-02T02:49:24.084Z,8.57
2018-10-02T02:51:53.324Z,8.61
2018-10-02T02:54:22.998Z,8.78
2018-10-02T02:56:52.436Z,8.69
2018-10-02T02:59:22.170Z,8.63
2018-10-02T03:01:51.779Z,8.55
2018-10-02T03:04:58.929Z,8.50
2018-10-02T03:07:28.332Z,8.54
2018-10-02T03:09:58.173Z,8.45
2018-10-02T03:12:27.784Z,8.59
2018-10-02T03:14:57.290Z,8.75
2018-10-02T03:17:25.446Z,8.58
2018-10-02T03:19:55.195Z,8.63
2018-10-02T03:22:24.684Z,8.48
2018-10-02T03:25:58.292Z,8.44
2018-10-02T03:28:26.489Z,8.44
2018-10-02T03:30:56.197Z,8.32
2018-10-02T03:33:25.801Z,8.28
2018-10-02T03:35:55.316Z,8.29
2018-10-02T03:38:23.719Z,8.23
2018-10-02T03:40:53.329Z,8.40
2018-10-02T03:43:22.960Z,8.25
2018-10-02T03:45:52.356Z,8.24
2018-10-02T03:48:22.173Z,8.28
2018-10-02T03:50:51.764Z,8.24
2018-10-02T03:53:21.271Z,8.08
2018-10-02T03:55:51.171Z,8.16
2018-10-02T03:58:20.576Z,8.13
2018-10-02T04:00:50.294Z,8.18
2018-10-02T04:03:18.629Z,8.11
2018-10-02T04:05:48.302Z,8.18
2018-10-02T04:08:16.854Z,8.07
2018-10-02T04:10:46.288Z,8.07
2018-10-02T04:13:15.818Z,8.11
2018-10-02T04:15:45.321Z,8.22
2018-10-02T04:18:13.989Z,8.26
2018-10-02T04:20:43.347Z,8.21
2018-10-02T04:23:13.204Z,8.16
2018-10-02T04:25:42.584Z,8.19
2018-10-02T04:28:12.235Z,8.25
2018-10-02T04:30:42.177Z,8.19
2018-10-02T04:33:11.785Z,8.16
2018-10-02T04:35:41.303Z,8.17
2018-10-02T04:38:09.710Z,8.16
2018-10-02T04:40:39.268Z,8.17
2018-10-02T04:43:08.972Z,8.18
2018-10-02T04:45:38.410Z,8.15
2018-10-02T04:48:08.159Z,8.23
2018-10-02T04:50:37.383Z,8.16
2018-10-02T04:53:07.177Z,8.08
2018-10-02T04:55:36.840Z,8.08
2018-10-02T04:58:06.437Z,8.14
2018-10-02T05:00:36.174Z,8.10
2018-10-02T05:03:05.381Z,8.16
2018-10-02T05:05:35.184Z,8.13
2018-10-02T05:08:04.330Z,8.21
2018-10-02T05:10:33.973Z,8.27
2018-10-02T05:13:03.591Z,8.14
2018-10-02T05:15:33.409Z,8.11
2018-10-02T05:18:04.348Z,8.18
2018-10-02T05:20:34.329Z,8.17
2018-10-02T05:23:04.313Z,8.28
2018-10-02T05:25:33.161Z,8.08
2018-10-02T05:28:03.320Z,8.02
2018-10-02T05:30:33.277Z,8.22
2018-10-02T05:33:01.911Z,8.35
2018-10-02T05:35:32.023Z,8.39
2018-10-02T05:38:02.153Z,8.28
2018-10-02T05:40:32.293Z,8.21
2018-10-02T05:43:01.205Z,8.31
2018-10-02T05:48:13.087Z,8.40
2018-10-02T05:50:43.321Z,8.39
2018-10-02T05:53:13.312Z,8.45
2018-10-02T05:55:42.210Z,8.34
2018-10-02T05:58:12.332Z,8.25
2018-10-02T06:00:43.428Z,8.28
2018-10-02T06:03:13.171Z,8.34
2018-10-02T06:05:43.324Z,8.45
2018-10-02T06:08:13.301Z,8.45
2018-10-02T06:10:42.407Z,8.51
2018-10-02T06:13:12.315Z,8.61
2018-10-02T06:15:41.242Z,8.65
2018-10-02T06:18:11.324Z,8.65
2018-10-02T06:20:41.369Z,8.61
2018-10-02T06:23:11.357Z,8.71
2018-10-02T06:25:41.309Z,8.64
2018-10-02T06:28:10.165Z,8.57
2018-10-02T06:30:40.321Z,8.74
2018-10-02T06:33:10.314Z,8.75
2018-10-02T06:35:38.908Z,8.67
2018-10-02T06:38:09.032Z,8.67
2018-10-02T06:40:39.315Z,8.86
2018-10-02T06:43:09.313Z,8.87
2018-10-02T06:45:38.147Z,8.85
2018-10-02T06:48:07.428Z,8.84
2018-10-02T06:50:37.378Z,8.95
2018-10-02T06:53:08.313Z,9.05
2018-10-02T06:55:37.286Z,9.18
2018-10-02T06:58:07.300Z,9.19
2018-10-02T07:00:36.049Z,9.39
2018-10-02T07:03:06.373Z,9.30
2018-10-02T07:05:36.376Z,9.23
2018-10-02T07:08:06.420Z,9.31
2018-10-02T07:10:37.325Z,9.23
2018-10-02T07:13:07.362Z,9.67
2018-10-02T07:15:37.328Z,10.18
2018-10-02T07:18:07.334Z,10.56
2018-10-02T07:20:37.577Z,10.95
2018-10-02T07:23:07.415Z,11.61
2018-10-02T07:25:37.325Z,11.90
2018-10-02T07:28:07.420Z,11.96
2018-10-02T07:30:37.344Z,12.10
2018-10-02T07:33:07.395Z,11.64
2018-10-02T07:35:37.380Z,11.21
2018-10-02T07:38:07.323Z,10.87
2018-10-02T07:40:37.373Z,10.64
2018-10-02T07:43:07.347Z,10.79
2018-10-02T07:45:37.260Z,11.23
2018-10-02T07:48:07.339Z,11.46
2018-10-02T07:50:37.354Z,11.94
2018-10-02T07:53:07.349Z,12.31
2018-10-02T07:55:37.397Z,12.19
2018-10-02T07:58:07.359Z,12.68
2018-10-02T08:00:37.323Z,13.13
2018-10-02T08:03:07.332Z,12.97
2018-10-02T08:05:37.348Z,13.21
2018-10-02T08:08:07.794Z,13.54
2018-10-02T08:10:37.405Z,13.91
2018-10-02T08:13:08.338Z,14.08
2018-10-02T08:15:38.422Z,13.46
2018-10-02T08:18:08.333Z,14.00
2018-10-02T08:20:38.417Z,13.46
2018-10-02T08:23:08.334Z,13.54
2018-10-02T08:25:42.310Z,13.51
2018-10-02T08:28:12.371Z,13.80
2018-10-02T08:30:42.338Z,14.49
2018-10-02T08:33:12.331Z,14.03
2018-10-02T08:35:42.557Z,13.52
2018-10-02T08:38:12.328Z,13.44
2018-10-02T08:40:42.499Z,14.37
2018-10-02T08:43:12.353Z,15.23
2018-10-02T08:45:42.353Z,17.13
2018-10-02T08:48:12.326Z,18.22
2018-10-02T08:50:42.408Z,17.43
2018-10-02T08:53:12.332Z,16.30
2018-10-02T08:55:42.321Z,15.84
2018-10-02T08:58:12.336Z,16.35
2018-10-02T09:00:42.339Z,17.01
2018-10-02T09:03:12.421Z,17.00
2018-10-02T09:05:42.309Z,17.89
2018-10-02T09:08:12.327Z,16.51
2018-10-02T09:10:42.321Z,16.62
2018-10-02T09:13:12.344Z,15.71
2018-10-02T09:15:42.437Z,15.19
2018-10-02T09:19:21.326Z,14.15
2018-10-02T09:21:51.341Z,14.24
2018-10-02T09:24:21.465Z,14.09
2018-10-02T09:26:51.322Z,13.92
2018-10-02T09:29:21.329Z,14.01
2018-10-02T09:31:56.325Z,14.19
2018-10-02T09:34:31.491Z,14.56
2018-10-02T09:37:06.377Z,14.62
2018-10-02T09:40:44.670Z,14.59
2018-10-02T09:43:19.873Z,13.95
2018-10-02T09:45:50.074Z,14.52
2018-10-02T09:48:20.341Z,13.93
2018-10-02T09:50:50.348Z,13.80
2018-10-02T09:53:20.323Z,14.02
2018-10-02T09:55:50.385Z,14.17
2018-10-02T09:58:20.328Z,13.61
2018-10-02T10:00:55.515Z,13.55
2018-10-02T10:03:25.432Z,13.59
2018-10-02T10:05:55.404Z,12.96
2018-10-02T10:08:25.322Z,12.82
2018-10-02T10:10:55.329Z,13.11
2018-10-02T10:13:25.271Z,13.31
2018-10-02T10:15:55.337Z,12.94
2018-10-02T10:18:25.362Z,12.61
2018-10-02T10:20:55.327Z,13.41
2018-10-02T10:23:25.371Z,12.75
2018-10-02T10:25:55.341Z,13.12
2018-10-02T10:28:25.381Z,13.13
2018-10-02T10:30:55.342Z,13.30
2018-10-02T10:33:25.356Z,13.58
2018-10-02T10:35:55.444Z,13.98
2018-10-02T10:38:25.320Z,14.14
2018-10-02T10:40:55.353Z,13.56
2018-10-02T10:43:25.357Z,13.23
2018-10-02T10:45:55.344Z,12.82
2018-10-02T10:48:25.374Z,12.49
2018-10-02T10:50:55.401Z,12.41
2018-10-02T10:53:25.348Z,12.23
2018-10-02T10:55:55.344Z,12.20
2018-10-02T10:58:25.368Z,12.08
2018-10-02T11:00:55.566Z,11.85
2018-10-02T11:03:25.461Z,11.90
2018-10-02T11:05:55.379Z,11.90
2018-10-02T11:08:25.352Z,11.77
2018-10-02T11:10:55.332Z,11.67
2018-10-02T11:13:25.327Z,11.41
2018-10-02T11:15:55.335Z,11.20
2018-10-02T11:18:25.294Z,11.16
2018-10-02T11:20:54.014Z,11.01
2018-10-02T11:23:24.030Z,10.92
2018-10-02T11:25:54.147Z,10.89
2018-10-02T11:28:24.341Z,10.84
2018-10-02T11:30:54.340Z,10.68
2018-10-02T11:33:24.313Z,10.79
2018-10-02T11:35:54.358Z,10.74
2018-10-02T11:38:24.344Z,10.71
2018-10-02T11:40:54.345Z,10.70
2018-10-02T11:43:24.400Z,10.45
2018-10-02T11:45:54.341Z,10.10
2018-10-02T11:48:24.331Z,9.97
2018-10-02T11:50:54.387Z,10.12
2018-10-02T11:53:24.325Z,10.28
2018-10-02T11:55:55.484Z,10.59
2018-10-02T11:58:25.343Z,10.83
2018-10-02T12:00:55.369Z,10.81
2018-10-02T12:03:25.438Z,10.58
2018-10-02T12:05:55.429Z,10.49
2018-10-02T12:08:25.345Z,10.31
2018-10-02T12:10:55.383Z,10.26
2018-10-02T12:13:25.393Z,10.42
2018-10-02T12:15:55.370Z,10.54
2018-10-02T12:18:25.361Z,10.46
2018-10-02T12:20:55.333Z,10.28
2018-10-02T12:23:25.331Z,10.28
2018-10-02T12:25:55.326Z,10.34
2018-10-02T12:28:24.264Z,10.38
2018-10-02T12:30:54.333Z,10.37
2018-10-02T12:33:24.299Z,10.14
2018-10-02T12:35:52.909Z,10.09
2018-10-02T12:38:22.519Z,10.31
2018-10-02T12:40:52.423Z,10.21
2018-10-02T12:43:23.328Z,10.15
2018-10-02T12:45:53.352Z,10.15
2018-10-02T12:48:23.507Z,10.06
2018-10-02T12:50:55.207Z,10.08
2018-10-02T12:53:25.368Z,10.03
2018-10-02T12:55:55.407Z,9.88
2018-10-02T12:58:25.326Z,9.86
2018-10-02T13:00:54.182Z,10.05
2018-10-02T13:03:24.333Z,10.16
2018-10-02T13:05:54.336Z,10.07
2018-10-02T13:08:23.266Z,10.18
2018-10-02T13:10:53.330Z,10.14
2018-10-02T13:13:23.208Z,10.20
2018-10-02T13:15:53.330Z,10.25
2018-10-02T13:18:23.348Z,10.25
2018-10-02T13:20:53.506Z,10.09
2018-10-02T13:23:23.325Z,10.11
2018-10-02T13:25:51.853Z,9.94
2018-10-02T13:28:21.528Z,9.99
2018-10-02T13:30:52.206Z,9.94
2018-10-02T13:33:22.281Z,9.95
2018-10-02T13:35:51.325Z,9.99
2018-10-02T13:38:20.278Z,10.00
2018-10-02T13:40:50.334Z,9.85
2018-10-02T13:43:20.332Z,9.93
2018-10-02T13:45:50.377Z,9.78
2018-10-02T13:48:20.324Z,9.63
2018-10-02T13:50:50.337Z,9.53
2018-10-02T13:53:20.336Z,9.53
2018-10-02T13:55:50.318Z,9.69
2018-10-02T13:58:20.335Z,9.73
2018-10-02T14:00:50.364Z,9.72
2018-10-02T14:03:20.329Z,9.71
2018-10-02T14:05:50.289Z,9.75
2018-10-02T14:08:19.069Z,9.70
2018-10-02T14:10:49.361Z,9.71
2018-10-02T14:13:19.333Z,9.63
2018-10-02T14:15:49.343Z,9.45
2018-10-02T14:18:19.375Z,9.44
2018-10-02T14:20:49.325Z,9.55
2018-10-02T14:23:19.435Z,9.37
2018-10-02T14:25:49.322Z,9.31
2018-10-02T14:28:19.363Z,9.29
2018-10-02T14:30:49.327Z,9.54
2018-10-02T14:33:19.324Z,9.83
2018-10-02T14:35:49.336Z,9.63
2018-10-02T14:38:19.347Z,9.59
2018-10-02T14:40:49.379Z,9.60
2018-10-02T14:43:19.375Z,9.45
2018-10-02T14:45:49.322Z,9.37
2018-10-02T14:48:18.242Z,9.28
2018-10-02T14:50:48.321Z,9.18
2018-10-02T14:53:18.292Z,9.17
2018-10-02T14:55:48.169Z,9.11
2018-10-02T14:58:17.989Z,9.13
2018-10-02T15:00:47.478Z,9.20
2018-10-02T15:03:17.317Z,9.06
2018-10-02T15:05:46.806Z,9.06
2018-10-02T15:08:16.322Z,9.04
2018-10-02T15:10:46.292Z,8.97
2018-10-02T15:13:15.167Z,9.06
2018-10-02T15:15:45.285Z,8.95
2018-10-02T15:18:14.044Z,8.98
2018-10-02T15:20:43.755Z,8.94
2018-10-02T15:23:13.433Z,8.98
2018-10-02T15:25:43.197Z,8.95
2018-10-02T15:28:12.672Z,9.01
2018-10-02T15:30:42.277Z,9.04
2018-10-02T15:33:10.440Z,9.07
2018-10-02T15:35:40.218Z,9.17
2018-10-02T15:38:09.796Z,9.22
2018-10-02T15:40:39.290Z,9.19
2018-10-02T15:43:08.283Z,9.27
2018-10-02T15:45:36.603Z,9.36
2018-10-02T15:48:06.420Z,9.43
2018-10-02T15:50:36.194Z,9.35
2018-10-02T15:53:06.037Z,9.36
2018-10-02T15:55:35.701Z,9.40
2018-10-02T15:58:05.320Z,9.38
2018-10-02T16:00:35.240Z,9.45
2018-10-02T16:03:04.994Z,9.48
2018-10-02T16:05:34.425Z,9.51
2018-10-02T16:08:04.206Z,9.38
2018-10-02T16:10:33.800Z,9.38
2018-10-02T16:13:03.317Z,9.42
2018-10-02T16:15:32.963Z,9.47
2018-10-02T16:18:02.423Z,9.41
2018-10-02T16:20:32.280Z,9.41
2018-10-02T16:23:00.447Z,9.53
2018-10-02T16:25:30.313Z,9.52
2018-10-02T16:27:59.689Z,9.49
2018-10-02T16:30:29.316Z,9.48
2018-10-02T16:32:59.157Z,9.48
2018-10-02T16:35:28.785Z,9.51
2018-10-02T16:37:58.313Z,9.55
2018-10-02T16:40:27.984Z,9.49
2018-10-02T16:42:57.783Z,9.47
2018-10-02T16:45:27.428Z,9.49
2018-10-02T16:47:57.205Z,9.49
2018-10-02T16:50:26.781Z,9.49
2018-10-02T16:52:56.737Z,9.49
2018-10-02T16:55:26.405Z,9.50
2018-10-02T16:57:56.178Z,9.58
2018-10-02T17:00:25.792Z,9.57
2018-10-02T17:02:55.313Z,9.51
2018-10-02T17:05:25.329Z,9.52
2018-10-02T17:07:55.183Z,9.63
2018-10-02T17:10:24.790Z,9.57
2018-10-02T17:12:54.308Z,9.52
2018-10-02T17:15:23.985Z,9.51
2018-10-02T17:17:53.505Z,9.54
2018-10-02T17:20:23.191Z,9.53
2018-10-02T17:22:53.157Z,9.51
2018-10-02T17:25:22.793Z,9.51
2018-10-02T17:27:52.305Z,9.53
2018-10-02T17:30:21.737Z,9.49
2018-10-02T17:32:51.287Z,9.47
2018-10-02T17:35:19.846Z,9.39
2018-10-02T17:37:49.319Z,9.37
2018-10-02T17:40:19.227Z,9.20
2018-10-02T17:42:49.177Z,9.27
2018-10-02T17:45:18.790Z,9.26
2018-10-02T17:47:48.316Z,9.30
2018-10-02T17:50:18.072Z,9.28
2018-10-02T17:52:47.802Z,9.28
2018-10-02T17:55:17.310Z,9.35
2018-10-02T17:57:46.971Z,9.30
2018-10-02T18:00:16.382Z,9.37
2018-10-02T18:02:46.306Z,9.41
2018-10-02T18:05:16.183Z,9.33
2018-10-02T18:07:45.810Z,9.37
2018-10-02T18:10:15.396Z,9.40
2018-10-02T18:12:45.191Z,9.30
2018-10-02T18:15:15.006Z,9.24
2018-10-02T18:17:44.417Z,9.15
2018-10-02T18:20:14.216Z,9.13
2018-10-02T18:22:43.784Z,9.00
2018-10-02T18:25:19.356Z,9.08
2018-10-02T18:27:49.320Z,9.20
2018-10-02T18:30:19.195Z,9.16
2018-10-02T18:32:49.245Z,9.07
2018-10-02T18:35:19.240Z,9.01
2018-10-02T18:37:49.172Z,9.06
2018-10-02T18:40:18.970Z,9.05
2018-10-02T18:42:48.462Z,9.06
2018-10-02T18:45:18.257Z,9.01
2018-10-02T18:47:48.197Z,9.12
2018-10-02T18:50:18.218Z,9.11
2018-10-02T18:52:47.817Z,9.10
2018-10-02T18:55:17.452Z,9.05
2018-10-02T18:57:47.190Z,9.10
2018-10-02T19:00:16.917Z,9.13
2018-10-02T19:05:22.284Z,9.38
2018-10-02T19:07:52.253Z,9.35
2018-10-02T19:10:21.984Z,9.31
2018-10-02T19:12:54.941Z,9.36
2018-10-02T19:15:24.444Z,9.36
2018-10-02T19:17:54.236Z,9.39
2018-10-02T19:20:29.306Z,9.45
2018-10-02T19:22:58.025Z,9.51
2018-10-02T19:27:46.111Z,9.58
2018-10-02T19:30:22.205Z,9.61
2018-10-02T19:32:52.344Z,9.63
2018-10-02T19:35:22.403Z,9.69
2018-10-02T19:37:57.688Z,9.70
2018-10-02T19:40:28.793Z,9.76
2018-10-02T19:42:58.382Z,9.81
2018-10-02T19:45:33.285Z,9.77
2018-10-02T19:48:03.780Z,9.84
2018-10-02T19:50:33.278Z,9.83
2018-10-02T19:53:01.966Z,9.82
2018-10-02T19:55:31.977Z,9.96
2018-10-02T19:58:01.431Z,9.95
2018-10-02T20:00:31.279Z,9.95
2018-10-02T20:05:37.333Z,10.02
2018-10-02T20:08:07.262Z,10.02
2018-10-02T20:10:37.311Z,10.01
2018-10-02T20:13:05.961Z,10.04
2018-10-02T20:15:35.346Z,10.01
2018-10-02T20:18:05.329Z,10.00
2018-10-02T20:20:35.186Z,9.99
2018-10-02T20:23:05.213Z,10.06
2018-10-02T20:25:35.190Z,10.09
2018-10-02T20:28:05.317Z,10.16
2018-10-02T20:30:35.277Z,10.11
2018-10-02T20:33:05.229Z,10.18
2018-10-02T20:35:35.377Z,10.22
2018-10-02T20:38:05.224Z,10.21
2018-10-02T20:40:34.984Z,10.14
2018-10-02T20:43:05.007Z,10.14
2018-10-02T20:45:34.424Z,10.19
2018-10-02T20:48:04.261Z,10.18
2018-10-02T20:50:34.184Z,10.21
2018-10-02T20:53:04.185Z,10.26
2018-10-02T20:55:33.991Z,10.23
2018-10-02T20:58:03.493Z,10.24
2018-10-02T21:00:33.244Z,10.26
2018-10-02T21:03:03.172Z,10.36
2018-10-02T21:05:32.782Z,10.39
2018-10-02T21:08:02.327Z,10.37
2018-10-02T21:10:32.183Z,10.43
2018-10-02T21:13:02.014Z,10.38
2018-10-02T21:15:31.913Z,10.42
2018-10-02T21:18:01.446Z,10.49
2018-10-02T21:20:31.190Z,10.56
2018-10-02T21:23:01.180Z,10.54
2018-10-02T21:25:31.186Z,10.56
2018-10-02T21:28:01.197Z,10.66
2018-10-02T21:30:31.198Z,10.60
2018-10-02T21:33:01.192Z,10.50
2018-10-02T21:35:31.204Z,10.47
2018-10-02T21:38:01.211Z,10.50
2018-10-02T21:40:31.236Z,10.45
2018-10-02T21:43:01.220Z,10.46
2018-10-02T21:45:31.188Z,10.43
2018-10-02T21:48:01.207Z,10.42
2018-10-02T21:50:31.185Z,10.41
2018-10-02T21:53:01.203Z,10.34
2018-10-02T21:55:31.254Z,10.32
2018-10-02T21:58:01.185Z,10.33
2018-10-02T22:00:32.544Z,10.45
2018-10-02T22:03:02.249Z,10.61
2018-10-02T22:05:32.058Z,10.52
2018-10-02T22:08:01.800Z,10.41
2018-10-02T22:10:31.290Z,10.38
2018-10-02T22:13:01.204Z,10.37
2018-10-02T22:15:31.256Z,10.44
2018-10-02T22:18:01.215Z,10.45
2018-10-02T22:20:31.175Z,10.45
2018-10-02T22:23:01.202Z,10.40
2018-10-02T22:25:31.204Z,10.37
2018-10-02T22:28:01.196Z,10.41
2018-10-02T22:30:31.189Z,10.46
2018-10-02T22:33:01.233Z,10.41
2018-10-02T22:35:31.187Z,10.38
2018-10-02T22:38:01.194Z,10.41
2018-10-02T22:40:31.225Z,10.52
2018-10-02T22:43:01.199Z,10.54
2018-10-02T22:45:31.282Z,10.54
2018-10-02T22:48:01.201Z,10.53
2018-10-02T22:50:31.554Z,10.56
2018-10-02T22:53:01.286Z,10.56
2018-10-02T22:55:31.204Z,10.60
2018-10-02T22:58:01.203Z,10.51
2018-10-02T23:00:31.188Z,10.61
2018-10-02T23:03:01.192Z,10.65
2018-10-02T23:05:31.198Z,10.58
2018-10-02T23:08:01.205Z,10.57
2018-10-02T23:10:31.215Z,10.49
2018-10-02T23:13:01.192Z,10.50
2018-10-02T23:15:31.179Z,10.53
2018-10-02T23:18:01.187Z,10.52
2018-10-02T23:20:31.184Z,10.53
2018-10-02T23:23:01.213Z,10.58
2018-10-02T23:25:31.196Z,10.63
2018-10-02T23:28:01.198Z,10.60
2018-10-02T23:30:31.182Z,10.68
2018-10-02T23:33:00.801Z,10.61
2018-10-02T23:35:30.321Z,10.66
2018-10-02T23:37:58.723Z,10.66
2018-10-02T23:40:28.473Z,10.67
2018-10-02T23:42:58.187Z,10.76
2018-10-02T23:45:28.324Z,10.80
2018-10-02T23:47:56.972Z,10.79
2018-10-02T23:50:26.352Z,10.80
2018-10-02T23:52:56.199Z,10.81
2018-10-02T23:55:26.024Z,10.87
2018-10-02T23:57:55.444Z,10.93
